sensor_id;sensor_type;location;lat;lon;timestamp;pressure;altitude;pressure_sealevel;temperature;humidity
69911;BME280;63555;49.920;17.868;2023-05-09T00:00:03;99624.41;;;1.78;70.24
69911;BME280;63555;49.920;17.868;2023-05-09T00:05:05;99618.53;;;1.70;70.56
69911;BME280;63555;49.920;17.868;2023-05-09T00:10:09;99618.72;;;1.62;70.65
69911;BME280;63555;49.920;17.868;2023-05-09T00:15:10;99618.00;;;1.57;70.86
69911;BME280;63555;49.920;17.868;2023-05-09T00:20:10;99605.13;;;1.52;70.78
69911;BME280;63555;49.920;17.868;2023-05-09T00:25:11;99594.75;;;1.51;70.66
69911;BME280;63555;49.920;17.868;2023-05-09T00:30:12;99600.09;;;1.45;70.52
69911;BME280;63555;49.920;17.868;2023-05-09T00:35:12;99595.19;;;1.34;70.72
69911;BME280;63555;49.920;17.868;2023-05-09T00:40:13;99590.25;;;1.23;70.99
69911;BME280;63555;49.920;17.868;2023-05-09T00:45:13;99587.84;;;1.16;71.44
69911;BME280;63555;49.920;17.868;2023-05-09T00:50:14;99585.25;;;1.16;71.50
69911;BME280;63555;49.920;17.868;2023-05-09T00:55:16;99588.78;;;1.13;71.55
69911;BME280;63555;49.920;17.868;2023-05-09T01:00:17;99590.59;;;1.10;71.41
69911;BME280;63555;49.920;17.868;2023-05-09T01:05:18;99572.63;;;1.01;71.86
69911;BME280;63555;49.920;17.868;2023-05-09T01:10:28;99577.97;;;0.94;71.65
69911;BME280;63555;49.920;17.868;2023-05-09T01:15:45;99565.28;;;0.81;71.80
69911;BME280;63555;49.920;17.868;2023-05-09T01:20:57;99571.59;;;0.69;71.86
69911;BME280;63555;49.920;17.868;2023-05-09T01:26:03;99571.81;;;0.60;71.97
69911;BME280;63555;49.920;17.868;2023-05-09T01:31:05;99566.84;;;0.51;71.98
69911;BME280;63555;49.920;17.868;2023-05-09T01:36:15;99573.00;;;0.45;72.45
69911;BME280;63555;49.920;17.868;2023-05-09T01:41:18;99578.38;;;0.38;72.38
69911;BME280;63555;49.920;17.868;2023-05-09T01:46:20;99569.78;;;0.34;72.55
69911;BME280;63555;49.920;17.868;2023-05-09T01:51:22;99565.50;;;0.33;72.42
69911;BME280;63555;49.920;17.868;2023-05-09T01:56:23;99568.06;;;0.35;72.35
69911;BME280;63555;49.920;17.868;2023-05-09T02:01:25;99556.91;;;0.31;72.54
69911;BME280;63555;49.920;17.868;2023-05-09T02:06:26;99557.00;;;0.26;72.32
69911;BME280;63555;49.920;17.868;2023-05-09T02:11:29;99560.56;;;0.21;72.19
69911;BME280;63555;49.920;17.868;2023-05-09T02:16:29;99559.06;;;0.11;72.46
69911;BME280;63555;49.920;17.868;2023-05-09T02:21:30;99562.72;;;0.01;72.77
69911;BME280;63555;49.920;17.868;2023-05-09T02:26:31;99561.16;;;-0.10;72.74
69911;BME280;63555;49.920;17.868;2023-05-09T02:31:32;99550.19;;;-0.22;73.19
69911;BME280;63555;49.920;17.868;2023-05-09T02:36:34;99545.22;;;-0.33;73.06
69911;BME280;63555;49.920;17.868;2023-05-09T02:41:34;99547.91;;;-0.39;72.96
69911;BME280;63555;49.920;17.868;2023-05-09T02:46:35;99559.28;;;-0.46;73.20
69911;BME280;63555;49.920;17.868;2023-05-09T02:51:35;99549.03;;;-0.52;73.44
69911;BME280;63555;49.920;17.868;2023-05-09T02:56:35;99555.19;;;-0.59;73.34
69911;BME280;63555;49.920;17.868;2023-05-09T03:01:36;99555.31;;;-0.66;73.81
69911;BME280;63555;49.920;17.868;2023-05-09T03:06:36;99547.69;;;-0.73;73.81
69911;BME280;63555;49.920;17.868;2023-05-09T03:11:37;99545.19;;;-0.79;73.87
69911;BME280;63555;49.920;17.868;2023-05-09T03:16:37;99546.97;;;-0.81;74.42
69911;BME280;63555;49.920;17.868;2023-05-09T03:21:38;99547.88;;;-0.87;74.11
69911;BME280;63555;49.920;17.868;2023-05-09T03:26:38;99548.78;;;-0.86;74.25
69911;BME280;63555;49.920;17.868;2023-05-09T03:31:39;99547.88;;;-0.87;73.96
69911;BME280;63555;49.920;17.868;2023-05-09T03:36:40;99554.81;;;-0.89;74.29
69911;BME280;63555;49.920;17.868;2023-05-09T03:41:42;99554.00;;;-0.91;74.63
69911;BME280;63555;49.920;17.868;2023-05-09T03:46:43;99554.03;;;-0.94;75.20
69911;BME280;63555;49.920;17.868;2023-05-09T03:51:43;99554.81;;;-0.89;75.24
69911;BME280;63555;49.920;17.868;2023-05-09T03:56:43;99558.25;;;-0.85;74.99
69911;BME280;63555;49.920;17.868;2023-05-09T04:01:44;99568.50;;;-0.79;75.52
69911;BME280;63555;49.920;17.868;2023-05-09T04:06:45;99567.47;;;-0.69;75.54
69911;BME280;63555;49.920;17.868;2023-05-09T04:11:45;99555.22;;;-0.61;75.55
69911;BME280;63555;49.920;17.868;2023-05-09T04:16:45;99555.88;;;-0.50;75.53
69911;BME280;63555;49.920;17.868;2023-05-09T04:21:46;99565.88;;;-0.30;75.57
69911;BME280;63555;49.920;17.868;2023-05-09T04:26:46;99564.63;;;-0.11;75.24
69911;BME280;63555;49.920;17.868;2023-05-09T04:31:47;99552.25;;;0.05;75.65
69911;BME280;63555;49.920;17.868;2023-05-09T04:36:47;99557.09;;;0.22;75.53
69911;BME280;63555;49.920;17.868;2023-05-09T04:41:48;99549.91;;;0.35;75.50
69911;BME280;63555;49.920;17.868;2023-05-09T04:46:49;99545.06;;;0.58;75.90
69911;BME280;63555;49.920;17.868;2023-05-09T04:51:50;99540.28;;;0.77;76.13
69911;BME280;63555;49.920;17.868;2023-05-09T04:56:50;99543.19;;;1.02;76.17
69911;BME280;63555;49.920;17.868;2023-05-09T05:01:51;99538.13;;;1.30;75.69
69911;BME280;63555;49.920;17.868;2023-05-09T05:06:51;99540.91;;;1.56;75.54
69911;BME280;63555;49.920;17.868;2023-05-09T05:11:51;99533.41;;;1.78;75.90
69911;BME280;63555;49.920;17.868;2023-05-09T05:16:52;99524.78;;;2.07;75.93
69911;BME280;63555;49.920;17.868;2023-05-09T05:21:52;99523.81;;;2.39;75.49
69911;BME280;63555;49.920;17.868;2023-05-09T05:26:52;99522.97;;;2.68;75.88
69911;BME280;63555;49.920;17.868;2023-05-09T05:31:53;99518.50;;;2.98;76.05
69911;BME280;63555;49.920;17.868;2023-05-09T05:36:53;99517.66;;;3.24;76.08
69911;BME280;63555;49.920;17.868;2023-05-09T05:41:53;99516.84;;;3.48;75.65
69911;BME280;63555;49.920;17.868;2023-05-09T05:46:54;99515.06;;;3.73;75.31
69911;BME280;63555;49.920;17.868;2023-05-09T05:51:55;99507.25;;;3.97;75.60
69911;BME280;63555;49.920;17.868;2023-05-09T05:56:56;99501.06;;;4.23;75.25
69911;BME280;63555;49.920;17.868;2023-05-09T06:01:56;99507.69;;;4.55;75.19
69911;BME280;63555;49.920;17.868;2023-05-09T06:06:56;99507.28;;;5.07;74.99
69911;BME280;63555;49.920;17.868;2023-05-09T06:11:57;99498.53;;;6.10;75.83
69911;BME280;63555;49.920;17.868;2023-05-09T06:16:58;99481.88;;;8.04;74.14
69911;BME280;63555;49.920;17.868;2023-05-09T06:21:58;99476.81;;;10.12;70.30
69911;BME280;63555;49.920;17.868;2023-05-09T06:26:59;99470.78;;;11.72;66.88
69911;BME280;63555;49.920;17.868;2023-05-09T06:31:59;99480.81;;;12.91;64.02
69911;BME280;63555;49.920;17.868;2023-05-09T06:36:59;99479.03;;;14.08;61.22
69911;BME280;63555;49.920;17.868;2023-05-09T06:42:00;99479.72;;;14.77;59.34
69911;BME280;63555;49.920;17.868;2023-05-09T06:47:01;99480.09;;;15.57;57.00
69911;BME280;63555;49.920;17.868;2023-05-09T06:52:02;99482.78;;;16.39;55.39
69911;BME280;63555;49.920;17.868;2023-05-09T06:57:02;99474.28;;;17.43;52.53
69911;BME280;63555;49.920;17.868;2023-05-09T07:02:03;99476.38;;;18.25;50.27
69911;BME280;63555;49.920;17.868;2023-05-09T07:07:03;99470.28;;;18.87;48.55
69911;BME280;63555;49.920;17.868;2023-05-09T07:12:04;99466.91;;;19.74;46.92
69911;BME280;63555;49.920;17.868;2023-05-09T07:17:04;99464.09;;;20.35;44.63
69911;BME280;63555;49.920;17.868;2023-05-09T07:22:05;99455.59;;;20.82;43.46
69911;BME280;63555;49.920;17.868;2023-05-09T07:27:05;99451.78;;;21.58;42.19
69911;BME280;63555;49.920;17.868;2023-05-09T07:32:05;99437.53;;;22.37;40.43
69911;BME280;63555;49.920;17.868;2023-05-09T07:37:06;99439.06;;;22.71;39.21
69911;BME280;63555;49.920;17.868;2023-05-09T07:42:06;99439.53;;;23.28;37.93
69911;BME280;63555;49.920;17.868;2023-05-09T07:47:07;99428.47;;;23.83;36.69
69911;BME280;63555;49.920;17.868;2023-05-09T07:52:08;99421.13;;;24.22;35.95
69911;BME280;63555;49.920;17.868;2023-05-09T07:57:08;99418.41;;;24.87;34.20
69911;BME280;63555;49.920;17.868;2023-05-09T08:02:09;99418.41;;;24.87;33.10
69911;BME280;63555;49.920;17.868;2023-05-09T08:07:09;99404.44;;;24.62;32.13
69911;BME280;63555;49.920;17.868;2023-05-09T08:12:10;99405.41;;;24.55;32.39
69911;BME280;63555;49.920;17.868;2023-05-09T08:17:11;99397.91;;;24.71;31.61
69911;BME280;63555;49.920;17.868;2023-05-09T08:22:18;99394.53;;;25.05;30.81
69911;BME280;63555;49.920;17.868;2023-05-09T08:27:18;99394.56;;;25.55;30.57
69911;BME280;63555;49.920;17.868;2023-05-09T08:32:19;99401.34;;;26.00;29.78
69911;BME280;63555;49.920;17.868;2023-05-09T08:37:19;99386.47;;;26.72;28.70
69911;BME280;63555;49.920;17.868;2023-05-09T08:42:21;99384.53;;;27.20;27.81
69911;BME280;63555;49.920;17.868;2023-05-09T08:47:22;99376.97;;;27.95;26.93
69911;BME280;63555;49.920;17.868;2023-05-09T08:52:23;99373.28;;;28.40;26.86
69911;BME280;63555;49.920;17.868;2023-05-09T08:57:25;99365.22;;;28.72;25.95
69911;BME280;63555;49.920;17.868;2023-05-09T09:02:26;99366.59;;;28.81;26.09
69911;BME280;63555;49.920;17.868;2023-05-09T09:07:27;99360.38;;;29.62;25.37
69911;BME280;63555;49.920;17.868;2023-05-09T09:12:27;99358.53;;;30.17;24.81
69911;BME280;63555;49.920;17.868;2023-05-09T09:17:29;99354.81;;;30.30;24.54
69911;BME280;63555;49.920;17.868;2023-05-09T09:22:32;99346.53;;;30.73;23.93
69911;BME280;63555;49.920;17.868;2023-05-09T09:27:33;99342.28;;;30.77;23.82
69911;BME280;63555;49.920;17.868;2023-05-09T09:32:35;99340.56;;;30.64;23.58
69911;BME280;63555;49.920;17.868;2023-05-09T09:37:37;99335.78;;;31.31;21.95
69911;BME280;63555;49.920;17.868;2023-05-09T09:42:43;99335.06;;;31.48;22.19
69911;BME280;63555;49.920;17.868;2023-05-09T09:47:46;99327.34;;;31.91;22.26
69911;BME280;63555;49.920;17.868;2023-05-09T09:52:51;99322.84;;;31.85;21.60
69911;BME280;63555;49.920;17.868;2023-05-09T09:57:52;99329.81;;;32.45;21.32
69911;BME280;63555;49.920;17.868;2023-05-09T10:02:54;99319.16;;;32.43;21.06
69911;BME280;63555;49.920;17.868;2023-05-09T10:07:59;99315.47;;;32.66;20.66
69911;BME280;63555;49.920;17.868;2023-05-09T10:13:07;99307.25;;;32.49;20.78
69911;BME280;63555;49.920;17.868;2023-05-09T10:18:10;99297.66;;;33.42;19.82
69911;BME280;63555;49.920;17.868;2023-05-09T10:23:11;99291.34;;;33.97;19.00
69911;BME280;63555;49.920;17.868;2023-05-09T10:28:16;99284.84;;;33.65;19.51
69911;BME280;63555;49.920;17.868;2023-05-09T10:33:19;99274.91;;;33.80;19.52
69911;BME280;63555;49.920;17.868;2023-05-09T10:38:23;99275.16;;;33.57;19.66
69911;BME280;63555;49.920;17.868;2023-05-09T10:43:24;99272.28;;;33.47;19.99
69911;BME280;63555;49.920;17.868;2023-05-09T10:48:26;99265.75;;;33.86;20.64
69911;BME280;63555;49.920;17.868;2023-05-09T10:53:46;99256.72;;;34.62;18.71
69911;BME280;63555;49.920;17.868;2023-05-09T10:58:47;99254.88;;;34.40;18.95
69911;BME280;63555;49.920;17.868;2023-05-09T11:03:53;99237.56;;;34.94;18.09
69911;BME280;63555;49.920;17.868;2023-05-09T11:08:53;99239.53;;;34.98;18.00
69911;BME280;63555;49.920;17.868;2023-05-09T11:13:56;99233.28;;;35.08;18.25
69911;BME280;63555;49.920;17.868;2023-05-09T11:18:57;99228.44;;;35.25;18.38
69911;BME280;63555;49.920;17.868;2023-05-09T11:23:57;99224.63;;;35.79;18.00
69911;BME280;63555;49.920;17.868;2023-05-09T11:28:58;99206.06;;;35.96;17.85
69911;BME280;63555;49.920;17.868;2023-05-09T11:34:00;99196.56;;;36.54;17.52
69911;BME280;63555;49.920;17.868;2023-05-09T11:44:15;99194.91;;;36.99;16.53
69911;BME280;63555;49.920;17.868;2023-05-09T11:49:17;99181.09;;;36.23;16.59
69911;BME280;63555;49.920;17.868;2023-05-09T11:54:18;99174.78;;;36.12;16.71
69911;BME280;63555;49.920;17.868;2023-05-09T11:59:18;99168.22;;;36.33;16.65
69911;BME280;63555;49.920;17.868;2023-05-09T12:04:19;99157.47;;;37.08;16.36
69911;BME280;63555;49.920;17.868;2023-05-09T12:09:20;99150.28;;;37.38;16.45
69911;BME280;63555;49.920;17.868;2023-05-09T12:19:27;99131.81;;;35.03;16.34
69911;BME280;63555;49.920;17.868;2023-05-09T12:24:29;99139.09;;;32.87;17.33
69911;BME280;63555;49.920;17.868;2023-05-09T12:29:30;99120.94;;;31.17;18.41
69911;BME280;63555;49.920;17.868;2023-05-09T12:34:30;99110.28;;;30.45;18.97
69911;BME280;63555;49.920;17.868;2023-05-09T12:39:31;99110.91;;;30.70;18.87
69911;BME280;63555;49.920;17.868;2023-05-09T12:44:31;99106.44;;;30.23;19.36
69911;BME280;63555;49.920;17.868;2023-05-09T12:49:35;99093.25;;;29.96;19.77
69911;BME280;63555;49.920;17.868;2023-05-09T12:54:36;99084.91;;;29.68;19.80
69911;BME280;63555;49.920;17.868;2023-05-09T12:59:36;99084.88;;;29.20;20.32
69911;BME280;63555;49.920;17.868;2023-05-09T13:04:42;99081.66;;;28.25;21.00
69911;BME280;63555;49.920;17.868;2023-05-09T13:09:54;99076.25;;;28.68;20.62
69911;BME280;63555;49.920;17.868;2023-05-09T13:15:00;99068.56;;;28.65;21.00
69911;BME280;63555;49.920;17.868;2023-05-09T13:20:00;99057.44;;;29.58;19.89
69911;BME280;63555;49.920;17.868;2023-05-09T13:25:01;99056.31;;;29.77;19.33
69911;BME280;63555;49.920;17.868;2023-05-09T13:30:03;99047.88;;;30.08;19.83
69911;BME280;63555;49.920;17.868;2023-05-09T13:35:05;99040.25;;;29.87;19.83
69911;BME280;63555;49.920;17.868;2023-05-09T13:40:07;99035.03;;;29.86;20.15
69911;BME280;63555;49.920;17.868;2023-05-09T13:45:08;99032.97;;;30.23;20.39
69911;BME280;63555;49.920;17.868;2023-05-09T13:50:08;99026.19;;;30.95;19.93
69911;BME280;63555;49.920;17.868;2023-05-09T13:55:09;99016.56;;;31.16;19.48
69911;BME280;63555;49.920;17.868;2023-05-09T14:00:10;99014.16;;;30.80;20.21
69911;BME280;63555;49.920;17.868;2023-05-09T14:05:10;99012.03;;;30.11;20.90
69911;BME280;63555;49.920;17.868;2023-05-09T14:10:11;99002.50;;;29.67;21.04
69911;BME280;63555;49.920;17.868;2023-05-09T14:15:12;99004.09;;;28.78;21.90
69911;BME280;63555;49.920;17.868;2023-05-09T14:20:12;98987.84;;;27.29;23.39
69911;BME280;63555;49.920;17.868;2023-05-09T14:25:14;98983.22;;;26.07;24.39
69911;BME280;63555;49.920;17.868;2023-05-09T14:30:15;98980.94;;;25.84;25.10
69911;BME280;63555;49.920;17.868;2023-05-09T14:35:15;98970.75;;;25.86;25.34
69911;BME280;63555;49.920;17.868;2023-05-09T14:40:15;98975.13;;;25.81;25.12
69911;BME280;63555;49.920;17.868;2023-05-09T14:45:16;98982.59;;;24.91;26.18
69911;BME280;63555;49.920;17.868;2023-05-09T14:50:17;98968.84;;;23.55;27.45
69911;BME280;63555;49.920;17.868;2023-05-09T14:55:18;98962.22;;;22.49;28.73
69911;BME280;63555;49.920;17.868;2023-05-09T15:00:19;98950.38;;;21.39;29.81
69911;BME280;63555;49.920;17.868;2023-05-09T15:05:19;98950.22;;;20.47;31.09
69911;BME280;63555;49.920;17.868;2023-05-09T15:10:20;98946.34;;;19.86;31.73
69911;BME280;63555;49.920;17.868;2023-05-09T15:15:21;98943.88;;;19.28;32.31
69911;BME280;63555;49.920;17.868;2023-05-09T15:20:23;98935.63;;;18.97;32.69
69911;BME280;63555;49.920;17.868;2023-05-09T15:25:23;98933.41;;;18.68;33.11
69911;BME280;63555;49.920;17.868;2023-05-09T15:30:23;98930.78;;;18.34;33.93
69911;BME280;63555;49.920;17.868;2023-05-09T15:35:25;98922.22;;;17.96;34.46
69911;BME280;63555;49.920;17.868;2023-05-09T15:40:26;98924.09;;;18.04;34.62
69911;BME280;63555;49.920;17.868;2023-05-09T15:45:27;98914.06;;;18.82;33.80
69911;BME280;63555;49.920;17.868;2023-05-09T15:50:28;98913.13;;;19.40;34.12
69911;BME280;63555;49.920;17.868;2023-05-09T15:55:30;98901.69;;;19.87;33.85
69911;BME280;63555;49.920;17.868;2023-05-09T16:00:30;98900.22;;;19.76;34.15
69911;BME280;63555;49.920;17.868;2023-05-09T16:05:30;98895.06;;;19.66;33.90
69911;BME280;63555;49.920;17.868;2023-05-09T16:10:31;98890.72;;;19.65;34.18
69911;BME280;63555;49.920;17.868;2023-05-09T16:15:32;98882.00;;;19.71;33.87
69911;BME280;63555;49.920;17.868;2023-05-09T16:20:32;98879.19;;;19.57;34.10
69911;BME280;63555;49.920;17.868;2023-05-09T16:25:32;98878.50;;;18.73;35.11
69911;BME280;63555;49.920;17.868;2023-05-09T16:30:33;98872.22;;;17.98;36.03
69911;BME280;63555;49.920;17.868;2023-05-09T16:35:33;98870.28;;;17.57;36.57
69911;BME280;63555;49.920;17.868;2023-05-09T16:40:35;98859.16;;;17.35;37.01
69911;BME280;63555;49.920;17.868;2023-05-09T16:45:35;98853.31;;;17.14;37.11
69911;BME280;63555;49.920;17.868;2023-05-09T16:50:36;98852.91;;;16.83;37.52
69911;BME280;63555;49.920;17.868;2023-05-09T16:55:37;98847.66;;;16.46;38.21
69911;BME280;63555;49.920;17.868;2023-05-09T17:00:37;98835.84;;;16.13;38.83
69911;BME280;63555;49.920;17.868;2023-05-09T17:05:38;98833.59;;;15.90;39.53
69911;BME280;63555;49.920;17.868;2023-05-09T17:10:38;98834.13;;;15.67;39.85
69911;BME280;63555;49.920;17.868;2023-05-09T17:15:39;98829.25;;;15.43;40.35
69911;BME280;63555;49.920;17.868;2023-05-09T17:20:39;98822.47;;;15.21;40.73
69911;BME280;63555;49.920;17.868;2023-05-09T17:25:40;98829.34;;;15.14;40.74
69911;BME280;63555;49.920;17.868;2023-05-09T17:30:41;98825.69;;;15.15;40.80
69911;BME280;63555;49.920;17.868;2023-05-09T17:35:41;98829.75;;;15.19;40.71
69911;BME280;63555;49.920;17.868;2023-05-09T17:40:42;98832.69;;;15.16;40.82
69911;BME280;63555;49.920;17.868;2023-05-09T17:45:43;98821.38;;;15.04;41.12
69911;BME280;63555;49.920;17.868;2023-05-09T17:50:44;98817.94;;;14.84;41.34
69911;BME280;63555;49.920;17.868;2023-05-09T17:55:45;98822.25;;;14.56;41.91
69911;BME280;63555;49.920;17.868;2023-05-09T18:00:45;98827.34;;;14.29;42.21
69911;BME280;63555;49.920;17.868;2023-05-09T18:05:46;98817.97;;;14.06;42.68
69911;BME280;63555;49.920;17.868;2023-05-09T18:10:47;98815.25;;;13.86;43.18
69911;BME280;63555;49.920;17.868;2023-05-09T18:15:47;98813.38;;;13.67;43.52
69911;BME280;63555;49.920;17.868;2023-05-09T18:20:47;98814.97;;;13.49;43.68
69911;BME280;63555;49.920;17.868;2023-05-09T18:25:48;98824.25;;;13.34;44.22
69911;BME280;63555;49.920;17.868;2023-05-09T18:30:57;98817.13;;;13.14;44.97
69911;BME280;63555;49.920;17.868;2023-05-09T18:35:57;98826.53;;;12.86;45.11
69911;BME280;63555;49.920;17.868;2023-05-09T18:40:58;98836.06;;;12.56;45.35
69911;BME280;63555;49.920;17.868;2023-05-09T18:45:58;98842.41;;;12.33;45.70
69911;BME280;63555;49.920;17.868;2023-05-09T18:51:02;98840.75;;;12.09;46.41
69911;BME280;63555;49.920;17.868;2023-05-09T18:56:03;98838.16;;;11.87;47.13
69911;BME280;63555;49.920;17.868;2023-05-09T19:01:04;98841.16;;;11.60;47.35
69911;BME280;63555;49.920;17.868;2023-05-09T19:06:04;98844.25;;;11.32;48.16
69911;BME280;63555;49.920;17.868;2023-05-09T19:11:05;98845.63;;;11.02;49.08
69911;BME280;63555;49.920;17.868;2023-05-09T19:16:06;98844.13;;;10.76;49.55
69911;BME280;63555;49.920;17.868;2023-05-09T19:21:07;98844.88;;;10.54;50.75
69911;BME280;63555;49.920;17.868;2023-05-09T19:26:07;98848.97;;;10.34;51.31
69911;BME280;63555;49.920;17.868;2023-05-09T19:31:08;98846.50;;;10.07;52.08
69911;BME280;63555;49.920;17.868;2023-05-09T19:36:09;98841.19;;;9.83;52.62
69911;BME280;63555;49.920;17.868;2023-05-09T19:41:09;98843.78;;;9.60;53.21
69911;BME280;63555;49.920;17.868;2023-05-09T19:46:10;98847.16;;;9.36;53.64
69911;BME280;63555;49.920;17.868;2023-05-09T19:51:10;98840.72;;;9.15;54.31
69911;BME280;63555;49.920;17.868;2023-05-09T19:56:11;98842.09;;;8.95;54.78
69911;BME280;63555;49.920;17.868;2023-05-09T20:01:11;98840.91;;;8.74;55.22
69911;BME280;63555;49.920;17.868;2023-05-09T20:06:12;98842.41;;;8.51;55.72
69911;BME280;63555;49.920;17.868;2023-05-09T20:11:15;98838.25;;;8.34;56.53
69911;BME280;63555;49.920;17.868;2023-05-09T20:16:15;98836.88;;;8.14;56.43
69911;BME280;63555;49.920;17.868;2023-05-09T20:21:16;98836.47;;;7.93;56.92
69911;BME280;63555;49.920;17.868;2023-05-09T20:26:16;98835.84;;;7.76;57.19
69911;BME280;63555;49.920;17.868;2023-05-09T20:31:16;98843.06;;;7.58;57.88
69911;BME280;63555;49.920;17.868;2023-05-09T20:36:17;98844.97;;;7.42;58.12
69911;BME280;63555;49.920;17.868;2023-05-09T20:41:17;98846.84;;;7.25;59.22
69911;BME280;63555;49.920;17.868;2023-05-09T20:46:18;98847.69;;;7.12;59.18
69911;BME280;63555;49.920;17.868;2023-05-09T20:51:18;98844.19;;;6.97;59.47
69911;BME280;63555;49.920;17.868;2023-05-09T20:56:18;98852.09;;;6.81;59.72
69911;BME280;63555;49.920;17.868;2023-05-09T21:01:19;98843.44;;;6.65;60.25
69911;BME280;63555;49.920;17.868;2023-05-09T21:06:19;98839.09;;;6.50;60.35
69911;BME280;63555;49.920;17.868;2023-05-09T21:11:20;98841.56;;;6.37;61.20
69911;BME280;63555;49.920;17.868;2023-05-09T21:16:21;98837.03;;;6.25;61.33
69911;BME280;63555;49.920;17.868;2023-05-09T21:21:22;98828.03;;;6.15;61.48
69911;BME280;63555;49.920;17.868;2023-05-09T21:26:22;98824.28;;;6.03;61.92
69911;BME280;63555;49.920;17.868;2023-05-09T21:31:22;98829.28;;;5.92;62.32
69911;BME280;63555;49.920;17.868;2023-05-09T21:36:23;98829.75;;;5.83;62.92
69911;BME280;63555;49.920;17.868;2023-05-09T21:41:23;98825.88;;;5.74;62.64
69911;BME280;63555;49.920;17.868;2023-05-09T21:46:24;98823.69;;;5.66;63.04
69911;BME280;63555;49.920;17.868;2023-05-09T21:51:24;98822.41;;;5.58;63.45
69911;BME280;63555;49.920;17.868;2023-05-09T21:56:24;98823.00;;;5.47;63.38
69911;BME280;63555;49.920;17.868;2023-05-09T22:01:25;98822.88;;;5.33;63.56
69911;BME280;63555;49.920;17.868;2023-05-09T22:06:25;98823.59;;;5.19;64.40
69911;BME280;63555;49.920;17.868;2023-05-09T22:11:25;98819.78;;;5.09;64.64
69911;BME280;63555;49.920;17.868;2023-05-09T22:16:26;98815.03;;;5.00;65.14
69911;BME280;63555;49.920;17.868;2023-05-09T22:21:26;98813.56;;;4.94;65.06
69911;BME280;63555;49.920;17.868;2023-05-09T22:26:27;98813.03;;;4.88;65.08
69911;BME280;63555;49.920;17.868;2023-05-09T22:31:27;98809.06;;;4.80;64.99
69911;BME280;63555;49.920;17.868;2023-05-09T22:36:27;98812.91;;;4.73;65.35
69911;BME280;63555;49.920;17.868;2023-05-09T22:41:28;98808.00;;;4.67;65.87
69911;BME280;63555;49.920;17.868;2023-05-09T22:46:28;98804.78;;;4.62;66.02
69911;BME280;63555;49.920;17.868;2023-05-09T22:51:28;98804.63;;;4.65;66.16
69911;BME280;63555;49.920;17.868;2023-05-09T22:56:29;98811.31;;;4.71;66.07
69911;BME280;63555;49.920;17.868;2023-05-09T23:01:29;98807.69;;;4.73;65.83
69911;BME280;63555;49.920;17.868;2023-05-09T23:06:30;98797.84;;;4.78;65.83
69911;BME280;63555;49.920;17.868;2023-05-09T23:11:30;98792.75;;;4.93;65.49
69911;BME280;63555;49.920;17.868;2023-05-09T23:16:31;98791.94;;;5.08;65.36
69911;BME280;63555;49.920;17.868;2023-05-09T23:21:31;98786.69;;;5.25;64.99
69911;BME280;63555;49.920;17.868;2023-05-09T23:26:31;98778.94;;;5.39;64.43
69911;BME280;63555;49.920;17.868;2023-05-09T23:31:32;98781.56;;;5.39;64.67
69911;BME280;63555;49.920;17.868;2023-05-09T23:36:32;98783.84;;;5.46;64.49
69911;BME280;63555;49.920;17.868;2023-05-09T23:41:32;98770.44;;;5.52;64.05
69911;BME280;63555;49.920;17.868;2023-05-09T23:46:33;98770.09;;;5.42;64.31
69911;BME280;63555;49.920;17.868;2023-05-09T23:51:33;98770.84;;;5.28;64.78
69911;BME280;63555;49.920;17.868;2023-05-09T23:56:34;98767.16;;;5.15;64.67
